createdAt,value
2017-08-05T00:00:37.911Z,0
2017-08-05T00:01:37.890Z,0
2017-08-05T00:02:37.873Z,0
2017-08-05T00:03:37.850Z,0
2017-08-05T00:04:37.832Z,0
2017-08-05T00:05:37.517Z,0
2017-08-05T00:06:37.789Z,0
2017-08-05T00:07:37.467Z,0
2017-08-05T00:08:37.749Z,0
2017-08-05T00:09:37.429Z,0
2017-08-05T00:10:37.709Z,0
2017-08-05T00:11:37.395Z,0
2017-08-05T00:12:37.536Z,0
2017-08-05T00:13:37.646Z,0
2017-08-05T00:14:37.628Z,0
2017-08-05T00:15:37.608Z,0
2017-08-05T00:16:37.581Z,0
2017-08-05T00:17:37.566Z,0
2017-08-05T00:18:37.550Z,0
2017-08-05T00:19:37.520Z,0
2017-08-05T00:20:37.507Z,0
2017-08-05T00:21:37.484Z,0
2017-08-05T00:22:37.465Z,0
2017-08-05T00:23:37.450Z,0
2017-08-05T00:24:37.422Z,0
2017-08-05T00:25:37.406Z,0
2017-08-05T00:26:37.091Z,0
2017-08-05T00:27:37.067Z,0
2017-08-05T00:28:37.345Z,0
2017-08-05T00:29:37.025Z,0
2017-08-05T00:30:37.007Z,0
2017-08-05T00:31:36.988Z,0
2017-08-05T00:32:37.259Z,0
2017-08-05T00:33:36.943Z,0
2017-08-05T00:34:37.223Z,0
2017-08-05T00:35:37.205Z,0
2017-08-05T00:36:37.183Z,0
2017-08-05T00:37:37.155Z,0
2017-08-05T00:38:36.843Z,0
2017-08-05T00:39:37.120Z,0
2017-08-05T00:40:37.105Z,0
2017-08-05T00:41:37.075Z,0
2017-08-05T00:42:37.058Z,0
2017-08-05T00:43:37.033Z,0
2017-08-05T00:44:37.021Z,0
2017-08-05T00:45:36.997Z,0
2017-08-05T00:46:36.971Z,0
2017-08-05T00:47:36.656Z,0
2017-08-05T00:48:36.937Z,0
2017-08-05T00:49:36.913Z,0
2017-08-05T00:50:36.601Z,0
2017-08-05T00:51:36.877Z,0
2017-08-05T00:52:36.851Z,0
2017-08-05T00:53:36.830Z,0
2017-08-05T00:54:36.516Z,0
2017-08-05T00:55:36.792Z,0
2017-08-05T00:56:36.775Z,0
2017-08-05T00:57:36.757Z,0
2017-08-05T00:58:36.786Z,0
2017-08-05T00:59:36.709Z,0
2017-08-05T01:00:36.691Z,0
2017-08-05T01:01:36.678Z,0
2017-08-05T01:02:36.349Z,0
2017-08-05T01:03:36.329Z,0
2017-08-05T01:04:36.610Z,0
2017-08-05T01:05:36.588Z,0
2017-08-05T01:06:36.566Z,0
2017-08-05T01:07:36.546Z,0
2017-08-05T01:08:36.531Z,0
2017-08-05T01:09:36.506Z,0
2017-08-05T01:10:36.487Z,0
2017-08-05T01:11:36.163Z,0
2017-08-05T01:12:36.440Z,0
2017-08-05T01:13:36.422Z,0
2017-08-05T01:14:36.403Z,0
2017-08-05T01:15:36.384Z,0
2017-08-05T01:16:36.369Z,0
2017-08-05T01:17:36.342Z,0
2017-08-05T01:18:36.019Z,0
2017-08-05T01:19:36.298Z,0
2017-08-05T01:20:36.275Z,0
2017-08-05T01:21:36.256Z,0
2017-08-05T01:22:36.242Z,0
2017-08-05T01:23:36.212Z,0
2017-08-05T01:24:35.892Z,0
2017-08-05T01:25:36.183Z,0
2017-08-05T01:26:36.156Z,0
2017-08-05T01:27:36.128Z,0
2017-08-05T01:28:36.107Z,0
2017-08-05T01:29:36.090Z,0
2017-08-05T01:30:36.073Z,0
2017-08-05T01:31:36.052Z,0
2017-08-05T01:32:36.040Z,0
2017-08-05T01:33:36.006Z,0
2017-08-05T01:34:35.688Z,0
2017-08-05T01:35:35.664Z,0
2017-08-05T01:36:35.948Z,0
2017-08-05T01:37:35.621Z,0
2017-08-05T01:38:35.903Z,0
2017-08-05T01:39:35.884Z,0
2017-08-05T01:40:35.564Z,0
2017-08-05T01:41:35.540Z,0
2017-08-05T01:42:35.812Z,0
2017-08-05T01:43:35.805Z,0
2017-08-05T01:44:35.482Z,0
2017-08-05T01:45:35.457Z,0
2017-08-05T01:46:35.732Z,0
2017-08-05T01:47:35.710Z,0
2017-08-05T01:48:35.700Z,0
2017-08-05T01:49:35.666Z,0
2017-08-05T01:50:35.351Z,0
2017-08-05T01:51:35.629Z,0
2017-08-05T01:52:35.606Z,0
2017-08-05T01:53:35.583Z,0
2017-08-05T01:54:35.590Z,0
2017-08-05T01:55:35.552Z,0
2017-08-05T01:56:35.523Z,0
2017-08-05T01:57:35.502Z,0
2017-08-05T01:58:35.186Z,0
2017-08-05T01:59:35.465Z,0
2017-08-05T02:00:35.444Z,0
2017-08-05T02:01:35.418Z,0
2017-08-05T02:02:35.401Z,0
2017-08-05T02:03:35.374Z,0
2017-08-05T02:04:35.356Z,0
2017-08-05T02:05:35.335Z,0
2017-08-05T02:06:35.319Z,0
2017-08-05T02:07:35.298Z,0
2017-08-05T02:08:34.975Z,0
2017-08-05T02:09:35.266Z,0
2017-08-05T02:10:35.242Z,0
2017-08-05T02:11:35.211Z,0
2017-08-05T02:12:35.197Z,0
2017-08-05T02:13:35.173Z,0
2017-08-05T02:14:35.170Z,0
2017-08-05T02:15:35.130Z,0
2017-08-05T02:16:35.110Z,0
2017-08-05T02:17:35.091Z,0
2017-08-05T02:18:34.769Z,0
2017-08-05T02:19:35.046Z,0
2017-08-05T02:20:35.023Z,0
2017-08-05T02:21:35.009Z,0
2017-08-05T02:22:34.983Z,0
2017-08-05T02:23:34.966Z,0
2017-08-05T02:24:34.949Z,0
2017-08-05T02:25:34.923Z,0
2017-08-05T02:26:34.021Z,0
2017-08-05T02:27:34.291Z,0
2017-08-05T02:28:34.866Z,0
2017-08-05T02:29:34.846Z,0
2017-08-05T02:30:34.537Z,0
2017-08-05T02:31:34.242Z,0
2017-08-05T02:32:34.780Z,0
2017-08-05T02:33:34.468Z,0
2017-08-05T02:34:34.754Z,0
2017-08-05T02:35:34.719Z,0
2017-08-05T02:36:34.697Z,0
2017-08-05T02:37:34.678Z,0
2017-08-05T02:38:34.665Z,0
2017-08-05T02:39:34.346Z,0
2017-08-05T02:40:34.630Z,0
2017-08-05T02:41:34.600Z,0
2017-08-05T02:42:34.589Z,0
2017-08-05T02:43:34.557Z,0
2017-08-05T02:44:34.543Z,0
2017-08-05T02:45:34.232Z,0
2017-08-05T02:46:34.497Z,0
2017-08-05T02:47:34.480Z,0
2017-08-05T02:48:34.454Z,0
2017-08-05T02:49:34.436Z,0
2017-08-05T02:50:34.122Z,0
2017-08-05T02:51:34.404Z,0
2017-08-05T02:52:34.098Z,0
2017-08-05T02:53:34.356Z,0
2017-08-05T02:54:34.335Z,0
2017-08-05T02:55:34.313Z,0
2017-08-05T02:56:34.288Z,0
2017-08-05T02:57:34.275Z,0
2017-08-05T02:58:34.246Z,0
2017-08-05T02:59:34.232Z,0
2017-08-05T03:00:34.208Z,0
2017-08-05T03:01:34.189Z,0
2017-08-05T03:02:33.878Z,0
2017-08-05T03:03:34.151Z,0
2017-08-05T03:04:33.845Z,0
2017-08-05T03:05:34.104Z,0
2017-08-05T03:06:34.083Z,0
2017-08-05T03:07:34.065Z,0
2017-08-05T03:08:34.056Z,0
2017-08-05T03:09:34.023Z,0
2017-08-05T03:10:34.005Z,0
2017-08-05T03:11:33.987Z,0
2017-08-05T03:12:33.957Z,0
2017-08-05T03:13:33.949Z,0
2017-08-05T03:14:33.922Z,0
2017-08-05T03:15:33.896Z,0
2017-08-05T03:16:33.595Z,0
2017-08-05T03:17:33.858Z,0
2017-08-05T03:18:33.532Z,0
2017-08-05T03:19:33.515Z,0
2017-08-05T03:20:33.793Z,0
2017-08-05T03:21:33.473Z,0
2017-08-05T03:22:33.454Z,0
2017-08-05T03:23:33.444Z,0
2017-08-05T03:24:33.706Z,0
2017-08-05T03:25:33.680Z,0
2017-08-05T03:26:33.371Z,0
2017-08-05T03:27:33.650Z,4
2017-08-05T03:28:33.323Z,4
2017-08-05T03:29:33.603Z,4
2017-08-05T03:30:33.588Z,0
2017-08-05T03:31:33.556Z,0
2017-08-05T03:32:33.538Z,4
2017-08-05T03:33:33.519Z,4
2017-08-05T03:34:33.493Z,4
2017-08-05T03:35:33.470Z,4
2017-08-05T03:36:33.148Z,4
2017-08-05T03:37:33.131Z,4
2017-08-05T03:38:33.410Z,8
2017-08-05T03:39:33.381Z,8
2017-08-05T03:40:33.362Z,8
2017-08-05T03:41:33.341Z,4
2017-08-05T03:42:33.022Z,8
2017-08-05T03:43:33.001Z,8
2017-08-05T03:44:33.316Z,8
2017-08-05T03:45:33.250Z,12
2017-08-05T03:46:33.229Z,16
2017-08-05T03:47:33.209Z,20
2017-08-05T03:48:33.180Z,20
2017-08-05T03:49:33.162Z,28
2017-08-05T03:50:33.145Z,28
2017-08-05T03:51:33.122Z,24
2017-08-05T03:52:33.097Z,28
2017-08-05T03:53:33.075Z,32
2017-08-05T03:54:33.054Z,36
2017-08-05T03:55:33.028Z,44
2017-08-05T03:56:33.011Z,44
2017-08-05T03:57:32.992Z,52
2017-08-05T03:58:32.966Z,64
2017-08-05T03:59:32.939Z,68
2017-08-05T04:00:32.918Z,80
2017-08-05T04:01:32.898Z,80
2017-08-05T04:02:32.872Z,76
2017-08-05T04:03:32.862Z,80
2017-08-05T04:04:32.846Z,88
2017-08-05T04:05:32.809Z,92
2017-08-05T04:06:32.792Z,96
2017-08-05T04:07:32.767Z,104
2017-08-05T04:08:32.737Z,116
2017-08-05T04:09:32.723Z,132
2017-08-05T04:10:32.698Z,148
2017-08-05T04:11:32.669Z,144
2017-08-05T04:12:32.647Z,148
2017-08-05T04:13:32.345Z,168
2017-08-05T04:14:32.616Z,192
2017-08-05T04:15:32.589Z,200
2017-08-05T04:16:32.575Z,192
2017-08-05T04:17:32.551Z,188
2017-08-05T04:18:32.515Z,192
2017-08-05T04:19:32.496Z,184
2017-08-05T04:20:32.476Z,176
2017-08-05T04:21:32.454Z,172
2017-08-05T04:22:32.430Z,180
2017-08-05T04:23:32.414Z,196
2017-08-05T04:24:32.385Z,200
2017-08-05T04:25:32.067Z,208
2017-08-05T04:26:32.340Z,212
2017-08-05T04:27:32.021Z,204
2017-08-05T04:28:32.302Z,212
2017-08-05T04:29:31.977Z,236
2017-08-05T04:30:32.245Z,232
2017-08-05T04:31:32.227Z,224
2017-08-05T04:32:31.906Z,232
2017-08-05T04:33:32.184Z,256
2017-08-05T04:34:32.163Z,284
2017-08-05T04:35:32.141Z,328
2017-08-05T04:36:32.126Z,412
2017-08-05T04:37:32.094Z,488
2017-08-05T04:38:31.781Z,548
2017-08-05T04:39:31.762Z,616
2017-08-05T04:40:32.030Z,640
2017-08-05T04:41:32.015Z,608
2017-08-05T04:42:31.991Z,568
2017-08-05T04:43:31.967Z,548
2017-08-05T04:44:31.944Z,512
2017-08-05T04:45:31.624Z,512
2017-08-05T04:46:31.896Z,552
2017-08-05T04:47:31.876Z,560
2017-08-05T04:48:31.851Z,536
2017-08-05T04:49:31.534Z,512
2017-08-05T04:50:31.513Z,504
2017-08-05T04:51:31.493Z,504
2017-08-05T04:52:31.774Z,540
2017-08-05T04:53:31.743Z,552
2017-08-05T04:54:31.723Z,552
2017-08-05T04:55:31.704Z,576
2017-08-05T04:56:31.683Z,592
2017-08-05T04:57:31.717Z,584
2017-08-05T04:58:31.350Z,536
2017-08-05T04:59:31.610Z,520
2017-08-05T05:00:31.593Z,520
2017-08-05T05:01:31.569Z,512
2017-08-05T05:02:31.562Z,524
2017-08-05T05:03:31.528Z,588
2017-08-05T05:04:31.510Z,648
2017-08-05T05:05:31.482Z,656
2017-08-05T05:06:31.454Z,640
2017-08-05T05:07:31.438Z,616
2017-08-05T05:08:31.119Z,588
2017-08-05T05:09:31.397Z,572
2017-08-05T05:10:31.374Z,552
2017-08-05T05:11:31.350Z,564
2017-08-05T05:12:31.035Z,604
2017-08-05T05:13:31.313Z,684
2017-08-05T05:14:31.286Z,796
2017-08-05T05:15:31.265Z,900
2017-08-05T05:16:31.239Z,932
2017-08-05T05:17:31.217Z,932
2017-08-05T05:18:30.904Z,960
2017-08-05T05:19:31.177Z,980
2017-08-05T05:20:31.155Z,1000
2017-08-05T05:21:31.142Z,1032
2017-08-05T05:22:31.108Z,1076
2017-08-05T05:23:31.087Z,1080
2017-08-05T05:24:31.068Z,1056
2017-08-05T05:25:31.041Z,1036
2017-08-05T05:26:31.049Z,1044
2017-08-05T05:27:31.004Z,1076
2017-08-05T05:28:30.981Z,1084
2017-08-05T05:29:30.954Z,1080
2017-08-05T05:30:30.938Z,1092
2017-08-05T05:31:30.918Z,1152
2017-08-05T05:32:30.893Z,1236
2017-08-05T05:33:30.868Z,1260
2017-08-05T05:34:30.855Z,1320
2017-08-05T05:35:30.823Z,1452
2017-08-05T05:36:30.809Z,1600
2017-08-05T05:37:30.486Z,1752
2017-08-05T05:38:30.772Z,1880
2017-08-05T05:39:30.451Z,2088
2017-08-05T05:40:30.720Z,2536
2017-08-05T05:41:30.702Z,3200
2017-08-05T05:42:30.676Z,3776
2017-08-05T05:43:30.363Z,4240
2017-08-05T05:44:30.336Z,4368
2017-08-05T05:45:30.613Z,3964
2017-08-05T05:46:30.591Z,3268
2017-08-05T05:47:30.566Z,2660
2017-08-05T05:48:30.547Z,2352
2017-08-05T05:49:30.531Z,2232
2017-08-05T05:50:30.498Z,2128
2017-08-05T05:51:30.483Z,1980
2017-08-05T05:52:30.466Z,1892
2017-08-05T05:53:30.433Z,1988
2017-08-05T05:54:30.428Z,2148
2017-08-05T05:55:30.393Z,2224
2017-08-05T05:56:30.372Z,2336
2017-08-05T05:57:30.348Z,2472
2017-08-05T05:58:30.339Z,2596
2017-08-05T05:59:30.311Z,2632
2017-08-05T06:00:30.296Z,2596
2017-08-05T06:01:29.973Z,2540
2017-08-05T06:02:30.247Z,2560
2017-08-05T06:03:30.222Z,2620
2017-08-05T06:04:30.200Z,2664
2017-08-05T06:05:30.176Z,2800
2017-08-05T06:06:29.858Z,2956
2017-08-05T06:07:29.850Z,3076
2017-08-05T06:08:29.819Z,3232
2017-08-05T06:09:30.087Z,3508
2017-08-05T06:10:29.793Z,3948
2017-08-05T06:11:29.756Z,4532
2017-08-05T06:12:29.733Z,5016
2017-08-05T06:13:29.712Z,5168
2017-08-05T06:14:29.688Z,5108
2017-08-05T06:15:29.968Z,4760
2017-08-05T06:16:29.942Z,4280
2017-08-05T06:17:29.918Z,3912
2017-08-05T06:18:29.894Z,3652
2017-08-05T06:19:29.879Z,3324
2017-08-05T06:20:29.853Z,3096
2017-08-05T06:21:29.836Z,2736
2017-08-05T06:22:29.811Z,2360
2017-08-05T06:23:29.794Z,2172
2017-08-05T06:24:29.769Z,2164
2017-08-05T06:25:29.752Z,2260
2017-08-05T06:26:29.727Z,2472
2017-08-05T06:27:29.704Z,2876
2017-08-05T06:28:29.681Z,3148
2017-08-05T06:29:29.663Z,3016
2017-08-05T06:30:29.640Z,2744
2017-08-05T06:31:29.625Z,2576
2017-08-05T06:32:29.597Z,2924
2017-08-05T06:33:29.279Z,3284
2017-08-05T06:34:29.559Z,3204
2017-08-05T06:35:29.533Z,2760
2017-08-05T06:36:29.515Z,2496
2017-08-05T06:37:29.225Z,3272
2017-08-05T06:38:29.468Z,3896
2017-08-05T06:39:29.450Z,3612
2017-08-05T06:40:29.434Z,3300
2017-08-05T06:41:29.401Z,3212
2017-08-05T06:42:29.389Z,3088
2017-08-05T06:43:29.068Z,3136
2017-08-05T06:44:29.342Z,3072
2017-08-05T06:45:29.023Z,3028
2017-08-05T06:46:29.291Z,3104
2017-08-05T06:47:29.284Z,3300
2017-08-05T06:48:28.957Z,3404
2017-08-05T06:49:29.228Z,3612
2017-08-05T06:50:29.215Z,3784
2017-08-05T06:51:29.191Z,3836
2017-08-05T06:52:29.169Z,3788
2017-08-05T06:53:28.849Z,3596
2017-08-05T06:54:28.835Z,3304
2017-08-05T06:55:29.107Z,3140
2017-08-05T06:56:29.083Z,3164
2017-08-05T06:57:29.055Z,3292
2017-08-05T06:58:28.458Z,3440
2017-08-05T06:59:29.019Z,3476
2017-08-05T07:00:28.401Z,3608
2017-08-05T07:01:28.682Z,3920
2017-08-05T07:02:28.947Z,4028
2017-08-05T07:03:28.933Z,3944
2017-08-05T07:04:28.904Z,3788
2017-08-05T07:05:28.888Z,3652
2017-08-05T07:06:28.868Z,3584
2017-08-05T07:07:28.841Z,3584
2017-08-05T07:08:28.825Z,3660
2017-08-05T07:09:28.802Z,3844
2017-08-05T07:10:28.780Z,4140
2017-08-05T07:11:28.461Z,4248
2017-08-05T07:12:28.736Z,4300
2017-08-05T07:13:28.710Z,4176
2017-08-05T07:14:28.697Z,3944
2017-08-05T07:15:28.670Z,3800
2017-08-05T07:16:28.701Z,3772
2017-08-05T07:17:28.629Z,3832
2017-08-05T07:18:28.604Z,3736
2017-08-05T07:19:28.583Z,3528
2017-08-05T07:20:28.563Z,3288
2017-08-05T07:21:28.538Z,3076
2017-08-05T07:22:28.531Z,2720
2017-08-05T07:23:28.499Z,2536
2017-08-05T07:24:28.479Z,2608
2017-08-05T07:25:28.161Z,3224
2017-08-05T07:26:27.839Z,4360
2017-08-05T07:27:28.411Z,5456
2017-08-05T07:28:28.383Z,5976
2017-08-05T07:29:28.075Z,5844
2017-08-05T07:30:28.048Z,4576
2017-08-05T07:31:28.324Z,3480
2017-08-05T07:32:28.297Z,3284
2017-08-05T07:33:28.287Z,3780
2017-08-05T07:34:28.257Z,4552
2017-08-05T07:35:28.238Z,4988
2017-08-05T07:36:28.222Z,4964
2017-08-05T07:37:28.198Z,4896
2017-08-05T07:38:27.876Z,5040
2017-08-05T07:39:27.856Z,5236
2017-08-05T07:40:27.838Z,4948
2017-08-05T07:41:28.117Z,4396
2017-08-05T07:42:28.085Z,4040
2017-08-05T07:43:28.063Z,4120
2017-08-05T07:44:28.044Z,4260
2017-08-05T07:45:28.027Z,4224
2017-08-05T07:46:28.009Z,4140
2017-08-05T07:47:27.978Z,4264
2017-08-05T07:48:27.960Z,4648
2017-08-05T07:49:27.939Z,5132
2017-08-05T07:50:27.618Z,5404
2017-08-05T07:51:27.891Z,5656
2017-08-05T07:52:27.871Z,6060
2017-08-05T07:53:27.849Z,6636
2017-08-05T07:54:27.833Z,7192
2017-08-05T07:55:27.809Z,7312
2017-08-05T07:56:27.781Z,6836
2017-08-05T07:57:27.775Z,6212
2017-08-05T07:58:27.442Z,6112
2017-08-05T07:59:27.723Z,6124
2017-08-05T08:00:27.698Z,5952
2017-08-05T08:01:27.388Z,5784
2017-08-05T08:02:27.656Z,5812
2017-08-05T08:03:27.638Z,5884
2017-08-05T08:04:27.612Z,6108
2017-08-05T08:05:27.591Z,6800
2017-08-05T08:06:27.566Z,7644
2017-08-05T08:07:27.254Z,7868
2017-08-05T08:08:27.229Z,7800
2017-08-05T08:09:27.521Z,6804
2017-08-05T08:10:27.510Z,5888
2017-08-05T08:11:27.249Z,5576
2017-08-05T08:12:27.155Z,5836
2017-08-05T08:13:27.418Z,6096
2017-08-05T08:14:27.400Z,6400
2017-08-05T08:15:27.396Z,7128
2017-08-05T08:16:27.375Z,8288
2017-08-05T08:17:27.335Z,9772
2017-08-05T08:18:27.322Z,11100
2017-08-05T08:19:27.290Z,11752
2017-08-05T08:20:27.272Z,11932
2017-08-05T08:21:27.251Z,12180
2017-08-05T08:22:27.230Z,12464
2017-08-05T08:23:27.207Z,12988
2017-08-05T08:24:27.190Z,13296
2017-08-05T08:25:27.165Z,13016
2017-08-05T08:26:27.147Z,12416
2017-08-05T08:27:27.129Z,11600
2017-08-05T08:28:27.108Z,10548
2017-08-05T08:29:27.080Z,9488
2017-08-05T08:30:27.069Z,8736
2017-08-05T08:31:27.045Z,8208
2017-08-05T08:32:27.022Z,7936
2017-08-05T08:33:26.706Z,7760
2017-08-05T08:34:26.978Z,7768
2017-08-05T08:35:26.962Z,7956
2017-08-05T08:36:26.643Z,8400
2017-08-05T08:37:26.924Z,9292
2017-08-05T08:38:26.908Z,10480
2017-08-05T08:39:26.874Z,11544
2017-08-05T08:40:26.851Z,11608
2017-08-05T08:41:26.835Z,11296
2017-08-05T08:42:26.849Z,11712
2017-08-05T08:43:26.910Z,12616
2017-08-05T08:44:26.780Z,13740
2017-08-05T08:45:26.754Z,14432
2017-08-05T08:46:26.749Z,15408
2017-08-05T08:47:26.712Z,16920
2017-08-05T08:48:26.692Z,17796
2017-08-05T08:49:26.674Z,17760
2017-08-05T08:50:26.357Z,16960
2017-08-05T08:51:26.636Z,15332
2017-08-05T08:52:26.613Z,14464
2017-08-05T08:53:26.594Z,15072
2017-08-05T08:54:26.582Z,16092
2017-08-05T08:55:26.556Z,15352
2017-08-05T08:56:26.537Z,16212
2017-08-05T08:57:26.513Z,19168
2017-08-05T08:58:26.496Z,21984
2017-08-05T08:59:26.473Z,20864
2017-08-05T09:00:26.457Z,17164
2017-08-05T09:01:26.434Z,14560
2017-08-05T09:02:26.427Z,12816
2017-08-05T09:03:26.422Z,12432
2017-08-05T09:04:26.373Z,13156
2017-08-05T09:05:26.360Z,14388
2017-08-05T09:06:26.343Z,15140
2017-08-05T09:07:26.318Z,15276
2017-08-05T09:08:26.308Z,14900
2017-08-05T09:09:26.280Z,14764
2017-08-05T09:10:26.271Z,15128
2017-08-05T09:11:26.246Z,16364
2017-08-05T09:12:26.233Z,18240
2017-08-05T09:13:26.209Z,19392
2017-08-05T09:14:26.189Z,20192
2017-08-05T09:15:25.928Z,19968
2017-08-05T09:16:25.851Z,19648
2017-08-05T09:17:26.134Z,20096
2017-08-05T09:18:26.121Z,20608
2017-08-05T09:19:26.093Z,19040
2017-08-05T09:20:26.074Z,19776
2017-08-05T09:21:26.058Z,20736
2017-08-05T09:22:26.043Z,21504
2017-08-05T09:23:26.017Z,22880
2017-08-05T09:24:26.008Z,22880
2017-08-05T09:25:25.983Z,20128
2017-08-05T09:26:25.673Z,18112
2017-08-05T09:27:25.947Z,15508
2017-08-05T09:28:25.925Z,11872
2017-08-05T09:29:25.325Z,13292
2017-08-05T09:30:25.894Z,16220
2017-08-05T09:31:25.282Z,16968
2017-08-05T09:32:25.889Z,17020
2017-08-05T09:33:25.848Z,17676
2017-08-05T09:34:25.814Z,19392
2017-08-05T09:35:25.208Z,20192
2017-08-05T09:36:25.783Z,19232
2017-08-05T09:37:25.764Z,17664
2017-08-05T09:38:25.754Z,15440
2017-08-05T09:39:25.729Z,14040
2017-08-05T09:40:25.712Z,14060
2017-08-05T09:41:25.695Z,14316
2017-08-05T09:42:25.677Z,14856
2017-08-05T09:43:25.656Z,14888
2017-08-05T09:44:25.637Z,14036
2017-08-05T09:45:25.327Z,13452
2017-08-05T09:46:25.603Z,11976
2017-08-05T09:47:25.579Z,10032
2017-08-05T09:48:25.268Z,9296
2017-08-05T09:49:25.249Z,10068
2017-08-05T09:50:25.233Z,10672
2017-08-05T09:51:25.212Z,10164
2017-08-05T09:52:25.494Z,10272
2017-08-05T09:53:25.179Z,12916
2017-08-05T09:54:25.172Z,16000
2017-08-05T09:55:25.138Z,16228
2017-08-05T09:56:25.420Z,13268
2017-08-05T09:57:25.106Z,10360
2017-08-05T09:58:25.383Z,11664
2017-08-05T09:59:25.368Z,13472
2017-08-05T10:00:25.345Z,13876
2017-08-05T10:01:25.042Z,13884
2017-08-05T10:02:25.306Z,13220
2017-08-05T10:03:25.284Z,12124
2017-08-05T10:04:25.277Z,11828
2017-08-05T10:05:25.248Z,11060
2017-08-05T10:06:24.958Z,9416
2017-08-05T10:07:25.213Z,7640
2017-08-05T10:08:25.194Z,7276
2017-08-05T10:09:25.179Z,8012
2017-08-05T10:10:25.153Z,8828
2017-08-05T10:11:25.960Z,7812
2017-08-05T10:12:25.120Z,6472
2017-08-05T10:13:25.104Z,5136
2017-08-05T10:14:25.083Z,4284
2017-08-05T10:15:25.063Z,4192
2017-08-05T10:16:25.047Z,4936
2017-08-05T10:17:25.028Z,7648
2017-08-05T10:18:24.705Z,15488
2017-08-05T10:19:24.990Z,19776
2017-08-05T10:20:24.962Z,18816
2017-08-05T10:21:24.944Z,15840
2017-08-05T10:22:24.949Z,12492
2017-08-05T10:23:24.957Z,9496
2017-08-05T10:24:24.886Z,8204
2017-08-05T10:25:24.874Z,7752
2017-08-05T10:26:24.855Z,6136
2017-08-05T10:27:24.838Z,5584
2017-08-05T10:28:24.815Z,6856
2017-08-05T10:29:24.500Z,5940
2017-08-05T10:30:24.776Z,5624
2017-08-05T10:31:24.451Z,5036
2017-08-05T10:32:24.731Z,3708
2017-08-05T10:33:24.712Z,4612
2017-08-05T10:34:24.395Z,4928
2017-08-05T10:35:25.052Z,5872
2017-08-05T10:36:24.063Z,9756
2017-08-05T10:37:24.626Z,11800
2017-08-05T10:38:24.614Z,16716
2017-08-05T10:39:24.592Z,18944
2017-08-05T10:40:24.571Z,16660
2017-08-05T10:41:24.259Z,13640
2017-08-05T10:42:24.531Z,13644
2017-08-05T10:43:24.509Z,13140
2017-08-05T10:44:24.494Z,14572
2017-08-05T10:45:24.470Z,14244
2017-08-05T10:46:24.449Z,13376
2017-08-05T10:47:24.434Z,13672
2017-08-05T10:48:24.459Z,13216
2017-08-05T10:49:24.091Z,12688
2017-08-05T10:50:24.372Z,13180
2017-08-05T10:51:24.346Z,12804
2017-08-05T10:52:24.331Z,12000
2017-08-05T10:53:24.012Z,11876
2017-08-05T10:54:23.987Z,11700
2017-08-05T10:55:24.275Z,14656
2017-08-05T10:56:24.248Z,14740
2017-08-05T10:57:23.928Z,14648
2017-08-05T10:58:23.914Z,10776
2017-08-05T10:59:24.189Z,10648
2017-08-05T11:00:24.170Z,11960
2017-08-05T11:01:24.151Z,14076
2017-08-05T11:02:23.832Z,14856
2017-08-05T11:03:23.840Z,13772
2017-08-05T11:04:24.083Z,14876
2017-08-05T11:05:24.070Z,16176
2017-08-05T11:06:24.051Z,16860
2017-08-05T11:07:24.034Z,18816
2017-08-05T11:08:24.009Z,21632
2017-08-05T11:09:23.740Z,24672
2017-08-05T11:10:23.966Z,24928
2017-08-05T11:11:23.649Z,20352
2017-08-05T11:12:24.252Z,16312
2017-08-05T11:13:23.915Z,16428
2017-08-05T11:14:23.886Z,19616
2017-08-05T11:15:23.573Z,21760
2017-08-05T11:16:23.851Z,22432
2017-08-05T11:17:23.831Z,21856
2017-08-05T11:18:23.528Z,22944
2017-08-05T11:19:23.493Z,25920
2017-08-05T11:20:23.480Z,29248
2017-08-05T11:21:23.756Z,31360
2017-08-05T11:22:23.738Z,31840
2017-08-05T11:23:23.722Z,33056
2017-08-05T11:24:23.694Z,33376
2017-08-05T11:25:23.680Z,30816
2017-08-05T11:26:23.661Z,27616
2017-08-05T11:27:23.648Z,25888
2017-08-05T11:28:23.631Z,28576
2017-08-05T11:29:23.311Z,28928
2017-08-05T11:30:23.593Z,29376
2017-08-05T11:31:23.269Z,29280
2017-08-05T11:32:23.551Z,26656
2017-08-05T11:33:23.545Z,23360
2017-08-05T11:34:23.514Z,22720
2017-08-05T11:35:23.205Z,28064
2017-08-05T11:36:23.183Z,29184
2017-08-05T11:37:23.464Z,26304
2017-08-05T11:38:23.154Z,20800
2017-08-05T11:39:23.424Z,17728
2017-08-05T11:40:23.411Z,18336
2017-08-05T11:41:23.390Z,20896
2017-08-05T11:42:23.375Z,23232
2017-08-05T11:43:23.360Z,21760
2017-08-05T11:44:23.349Z,19808
2017-08-05T11:45:23.022Z,20064
2017-08-05T11:46:23.304Z,21152
2017-08-05T11:47:23.548Z,19264
2017-08-05T11:48:23.264Z,19200
2017-08-05T11:49:22.957Z,22080
2017-08-05T11:50:23.229Z,24992
2017-08-05T11:51:23.215Z,30080
2017-08-05T11:52:23.198Z,30656
2017-08-05T11:53:22.582Z,28864
2017-08-05T11:54:22.866Z,25568
2017-08-05T11:55:22.846Z,22688
2017-08-05T11:56:23.124Z,19680
2017-08-05T11:57:23.112Z,21760
2017-08-05T11:58:23.092Z,25888
2017-08-05T11:59:23.083Z,30496
2017-08-05T12:00:23.062Z,31328
2017-08-05T12:01:23.061Z,29088
2017-08-05T12:02:23.020Z,29536
2017-08-05T12:03:22.707Z,25440
2017-08-05T12:04:22.989Z,17624
2017-08-05T12:05:22.969Z,13636
2017-08-05T12:06:22.953Z,12180
2017-08-05T12:07:22.943Z,11640
2017-08-05T12:08:22.924Z,13240
2017-08-05T12:09:22.900Z,10768
2017-08-05T12:10:22.878Z,8012
2017-08-05T12:11:22.868Z,8800
2017-08-05T12:12:22.848Z,12904
2017-08-05T12:13:22.835Z,14912
2017-08-05T12:14:22.814Z,18976
2017-08-05T12:15:22.789Z,21312
2017-08-05T12:16:22.773Z,19360
2017-08-05T12:17:22.760Z,21216
2017-08-05T12:18:22.755Z,21376
2017-08-05T12:19:22.719Z,18848
2017-08-05T12:20:22.757Z,13416
2017-08-05T12:21:22.693Z,13256
2017-08-05T12:22:22.374Z,15684
2017-08-05T12:23:22.355Z,13940
2017-08-05T12:24:22.628Z,14148
2017-08-05T12:25:22.613Z,14052
2017-08-05T12:26:22.603Z,10664
2017-08-05T12:27:22.575Z,8692
2017-08-05T12:28:22.266Z,8156
2017-08-05T12:29:22.237Z,6528
2017-08-05T12:30:22.528Z,6876
2017-08-05T12:31:22.208Z,7444
2017-08-05T12:32:22.476Z,6604
2017-08-05T12:33:22.458Z,5768
2017-08-05T12:34:22.443Z,5148
2017-08-05T12:35:22.419Z,6956
2017-08-05T12:36:22.405Z,10480
2017-08-05T12:37:22.384Z,20416
2017-08-05T12:38:22.365Z,31040
2017-08-05T12:39:22.342Z,32768
2017-08-05T12:40:22.321Z,31136
2017-08-05T12:41:22.008Z,41504
2017-08-05T12:42:22.287Z,35008
2017-08-05T12:43:22.263Z,31936
2017-08-05T12:44:21.949Z,37024
2017-08-05T12:45:21.940Z,43296
2017-08-05T12:46:21.925Z,56064
2017-08-05T12:47:21.897Z,65504
2017-08-05T12:48:21.579Z,39232
2017-08-05T12:49:22.154Z,45152
2017-08-05T12:50:22.140Z,76544
2017-08-05T12:51:21.876Z,37664
2017-08-05T12:52:21.806Z,89952
2017-08-05T12:53:21.815Z,38912
2017-08-05T12:54:21.774Z,35968
2017-08-05T12:55:21.762Z,30432
2017-08-05T12:56:21.742Z,32320
2017-08-05T12:57:22.020Z,39360
2017-08-05T12:58:22.015Z,66528
2017-08-05T12:59:21.697Z,137664
2017-08-05T13:00:21.679Z,112000
2017-08-05T13:01:21.964Z,45856
2017-08-05T13:02:21.945Z,43264
2017-08-05T13:03:21.646Z,39648
2017-08-05T13:04:21.925Z,42144
2017-08-05T13:05:21.904Z,49504
2017-08-05T13:06:21.595Z,39968
2017-08-05T13:07:21.870Z,29952
2017-08-05T13:08:21.560Z,27328
2017-08-05T13:09:21.550Z,25056
2017-08-05T13:10:21.831Z,30176
2017-08-05T13:11:21.819Z,25120
2017-08-05T13:12:21.810Z,27424
2017-08-05T13:13:21.790Z,34592
2017-08-05T13:14:21.773Z,28096
2017-08-05T13:15:21.765Z,26592
2017-08-05T13:16:21.465Z,29280
2017-08-05T13:17:21.736Z,27328
2017-08-05T13:18:21.720Z,27136
2017-08-05T13:19:21.705Z,28992
2017-08-05T13:20:21.694Z,36032
2017-08-05T13:21:21.379Z,33664
2017-08-05T13:22:21.360Z,31680
2017-08-05T13:23:21.349Z,29280
2017-08-05T13:24:21.633Z,30560
2017-08-05T13:25:21.615Z,57792
2017-08-05T13:26:21.601Z,39200
2017-08-05T13:27:21.588Z,45856
2017-08-05T13:28:21.575Z,44640
2017-08-05T13:29:21.553Z,67776
2017-08-05T13:30:21.544Z,33632
2017-08-05T13:31:21.528Z,25408
2017-08-05T13:32:21.520Z,22400
2017-08-05T13:33:21.503Z,26752
2017-08-05T13:34:21.486Z,38240
2017-08-05T13:35:21.169Z,78944